ADDS METAR Data INFO
IDs: Format: Raw Decoded Include TAF

Data at: 1230 UTC 20 Jul 2017

METAR for:KCRP (Corpus Christi Intl, TX, US)
Text:KCRP 201151Z 11003KT 10SM FEW017 FEW250 24/24 A3008 RMK AO2 SLP186 T02440244 10267 20244 53011
Temperature: 24.4°C ( 76°F)
Dewpoint: 24.4°C ( 76°F) [RH = 100%]
Pressure (altimeter):30.08 inches Hg (1018.7 mb) [Sea level pressure: 1018.6 mb]
Winds:from the ESE (110 degrees) at 3 MPH (3 knots; 1.5 m/s)
Visibility:10 or more sm (16+ km)
Ceiling:at least 12,000 feet AGL
Clouds: few clouds at 1700 feet AGL, few clouds at 25000 feet AGL